Terminal Aerodrome Forecast
Issued by NWS Raleigh/Durham, NC

Home | Current Version | Previous Version | Text Only | Print | Product List | Glossary On
Versions: 1 2 3 4 5 6 7 8 9 10 11 12 13 14 15 16 17 18 19 20 21 22 23 24 25 26 27 28 29 30 31 32 33 34 35 36 37 38 39
000
FTUS42 KRAH 242333
TAFFAY
TAF
KFAY 242333Z 2500/2524 20010KT P6SM VCSH SCT015 BKN100
      TEMPO 2500/2503 5SM SHRA SCT015 BKN035 BKN100
     FM250300 20010KT P6SM SCT015 SCT080
     FM251400 23015G25KT P6SM FEW030 SCT045=

USA.gov is the U.S. government's official web portal to all federal, state and local government web resources and services.